Time;durP1;ratioP1;P1;durP2;ratioP2;P2;SDS_P1;SDS_P2;PMS_P1;PMS_P2;Temp;Humidity;BMP_temperature;BMP_pressure;BME280_temperature;BME280_humidity;BME280_pressure;Samples;Min_cycle;Max_cycle;Signal;HPM_P1;HPM_P2
2023/01/13 00:01:12;;;;;;;4.00;3.80;;;;;;;9.86;100.00;100134.47;6141245;23;20032;-70
2023/01/13 00:03:39;;;;;;;4.30;4.10;;;;;;;9.91;100.00;100129.81;6159164;23;20483;-70
2023/01/13 00:06:07;;;;;;;4.00;3.80;;;;;;;9.54;100.00;100071.69;6126274;23;20080;-70
2023/01/13 00:08:34;;;;;;;4.82;4.55;;;;;;;9.88;100.00;100120.38;6169141;23;20531;-70
2023/01/13 00:11:00;;;;;;;3.88;3.75;;;;;;;9.28;100.00;100029.53;6142943;23;20255;-69
2023/01/13 00:13:27;;;;;;;4.20;4.00;;;;;;;9.74;100.00;100123.78;6160519;23;20098;-70
2023/01/13 00:16:06;;;;;;;3.78;3.67;;;;;;;9.30;100.00;100066.94;6112463;23;20572;-70
2023/01/13 00:18:33;;;;;;;4.30;4.10;;;;;;;9.66;100.00;100112.03;6167530;23;20127;-69
2023/01/13 00:21:01;;;;;;;4.20;4.00;;;;;;;9.61;100.00;100117.56;6113796;23;20043;-70
2023/01/13 00:23:29;;;;;;;5.10;4.90;;;;;;;9.52;100.00;100099.72;6154461;23;20092;-70
2023/01/13 00:26:01;;;;;;;3.83;3.72;;;;;;;9.66;100.00;100123.38;6122282;23;20021;-69
2023/01/13 00:28:27;;;;;;;4.28;4.07;;;;;;;9.72;100.00;100132.66;6167829;23;20159;-69
2023/01/13 00:30:57;;;;;;;4.00;3.80;;;;;;;9.52;100.00;100086.63;6134462;23;20195;-69
2023/01/13 00:33:24;;;;;;;4.00;3.80;;;;;;;9.75;100.00;100140.34;6115805;23;20031;-70
2023/01/13 00:35:58;;;;;;;4.10;3.90;;;;;;;9.18;100.00;100039.69;6137039;23;20080;-70
2023/01/13 00:38:24;;;;;;;4.35;4.15;;;;;;;9.39;100.00;100061.16;6120948;23;20016;-69
2023/01/13 00:41:02;;;;;;;4.10;3.90;;;;;;;9.74;100.00;100136.88;6106748;23;20037;-69
2023/01/13 00:43:30;;;;;;;4.15;3.95;;;;;;;9.75;100.00;100138.56;6146676;23;20033;-70
2023/01/13 00:45:56;;;;;;;3.97;3.80;;;;;;;9.82;100.00;100143.44;6139006;23;20143;-69
2023/01/13 00:48:23;;;;;;;4.25;4.05;;;;;;;9.75;100.00;100138.56;6138746;23;20025;-69
2023/01/13 00:51:00;;;;;;;3.97;3.78;;;;;;;9.70;100.00;100143.25;6138882;23;20131;-69
2023/01/13 00:53:27;;;;;;;4.10;3.90;;;;;;;9.15;100.00;100055.53;6161129;23;20029;-69
2023/01/13 00:55:59;;;;;;;4.00;3.80;;;;;;;9.68;100.00;100136.38;6143146;23;20013;-70
2023/01/13 00:58:25;;;;;;;4.10;3.90;;;;;;;9.08;100.00;100041.13;6167656;23;20045;-70
2023/01/13 01:00:52;;;;;;;4.13;3.92;;;;;;;9.65;100.00;100131.31;6144514;23;20511;-70
2023/01/13 01:03:19;;;;;;;4.20;4.00;;;;;;;9.60;100.00;100126.34;6176407;23;20020;-70
2023/01/13 01:05:48;;;;;;;4.28;4.07;;;;;;;9.56;100.00;100127.44;6140323;23;20055;-69
2023/01/13 01:08:14;;;;;;;4.00;3.80;;;;;;;9.61;100.00;100141.13;6145320;23;20046;-69
2023/01/13 01:10:41;;;;;;;4.45;4.18;;;;;;;9.54;100.00;100145.88;6169526;23;20179;-69
2023/01/13 01:13:13;;;;;;;3.75;3.65;;;;;;;9.40;100.00;100101.28;6135084;23;20135;-69
2023/01/13 01:15:40;;;;;;;4.30;4.10;;;;;;;9.02;100.00;100035.38;6116521;23;20025;-69
2023/01/13 01:18:07;;;;;;;4.00;3.80;;;;;;;9.54;100.00;100134.53;6174562;23;20308;-69
2023/01/13 01:20:33;;;;;;;4.28;4.07;;;;;;;9.41;100.00;100123.09;6140512;23;20021;-70
2023/01/13 01:23:00;;;;;;;4.15;3.95;;;;;;;9.49;100.00;100120.88;6133636;23;20088;-70
2023/01/13 01:25:26;;;;;;;4.20;4.00;;;;;;;9.51;100.00;100134.72;6135153;23;20023;-70
2023/01/13 01:27:53;;;;;;;4.50;3.83;;;;;;;8.82;100.00;100053.06;6144300;23;20025;-69
2023/01/13 01:30:19;;;;;;;4.40;4.20;;;;;;;9.62;100.00;100162.94;6143104;23;20040;-69
2023/01/13 01:32:46;;;;;;;4.38;4.03;;;;;;;9.34;100.00;100106.88;6138066;23;20032;-70
2023/01/13 01:35:12;;;;;;;4.13;3.92;;;;;;;9.57;100.00;100145.69;6135091;23;20249;-70
2023/01/13 01:37:38;;;;;;;4.20;4.00;;;;;;;9.56;100.00;100130.94;6140048;23;20105;-70
2023/01/13 01:40:05;;;;;;;4.10;3.90;;;;;;;9.54;100.00;100090.88;6109403;23;20013;-69
2023/01/13 01:45:20;;;;;;;4.38;4.07;;;;;;;9.33;100.00;100123.53;6136857;23;20180;-72
2023/01/13 01:47:50;;;;;;;4.93;4.20;;;;;;;9.29;100.00;100149.03;6142505;23;20036;-70
2023/01/13 01:50:18;;;;;;;4.60;4.40;;;;;;;9.06;98.17;100124.13;6137577;23;20029;-70
2023/01/13 01:52:51;;;;;;;4.15;3.95;;;;;;;9.24;93.26;100124.03;6118729;23;20026;-70
2023/01/13 01:55:21;;;;;;;4.47;4.07;;;;;;;8.90;91.91;100052.59;6134388;23;20028;-70
2023/01/13 01:58:17;;;;;;;4.57;4.38;;;;;;;9.00;92.47;100098.31;6141468;23;20029;-70
2023/01/13 02:00:43;;;;;;;4.45;4.25;;;;;;;8.88;92.25;100110.28;6133730;23;20071;-70
2023/01/13 02:03:10;;;;;;;4.10;3.90;;;;;;;8.74;89.11;100050.00;6140309;23;20465;-70
2023/01/13 02:05:40;;;;;;;7.38;4.13;;;;;;;8.91;87.95;100067.41;6175355;23;20016;-69
2023/01/13 02:08:08;;;;;;;4.30;4.00;;;;;;;8.83;87.92;100059.97;6114782;23;20037;-70
2023/01/13 02:10:35;;;;;;;3.80;3.70;;;;;;;8.17;87.55;99972.84;6165079;23;20351;-70
2023/01/13 02:13:07;;;;;;;4.30;4.05;;;;;;;8.73;87.34;100064.84;6137038;23;20049;-69
2023/01/13 02:15:56;;;;;;;5.10;4.35;;;;;;;8.66;88.36;100062.66;6161079;23;20534;-69
2023/01/13 02:18:37;;;;;;;4.00;3.80;;;;;;;8.45;88.30;100036.75;6115548;23;20028;-69
2023/01/13 02:21:26;;;;;;;3.70;3.60;;;;;;;8.51;89.12;100062.56;6154036;23;20012;-70
2023/01/13 02:27:24;;;;;;;3.88;3.67;;;;;;;8.25;91.72;100068.31;6174140;23;20438;-70
2023/01/13 02:33:21;;;;;;;3.55;3.45;;;;;;;8.29;93.22;100080.28;6142684;23;20262;-70
2023/01/13 02:36:07;;;;;;;12.05;4.10;;;;;;;8.15;95.16;100057.50;6167513;23;20454;-70
2023/01/13 02:38:39;;;;;;;4.30;4.10;;;;;;;7.97;96.26;100051.44;6138291;23;20037;-69
2023/01/13 02:44:12;;;;;;;4.03;3.83;;;;;;;7.73;99.01;100043.09;6138327;23;20022;-70
2023/01/13 02:46:54;;;;;;;4.70;4.30;;;;;;;7.70;99.68;100085.06;6161601;23;20239;-70
2023/01/13 02:49:26;;;;;;;3.83;3.67;;;;;;;7.74;100.00;100050.03;6124715;23;20013;-70
2023/01/13 02:51:59;;;;;;;4.07;3.88;;;;;;;7.67;100.00;100065.16;6141252;23;20024;-69
2023/01/13 02:54:28;;;;;;;4.25;4.00;;;;;;;7.24;100.00;100009.88;6137319;23;20100;-69
2023/01/13 02:56:58;;;;;;;4.28;3.97;;;;;;;7.34;100.00;100025.91;6163013;23;20045;-69
2023/01/13 02:59:26;;;;;;;4.22;3.92;;;;;;;6.88;100.00;99960.34;6136811;23;20090;-70
2023/01/13 03:01:57;;;;;;;4.10;3.90;;;;;;;7.38;100.00;100040.50;6145390;23;20087;-70
2023/01/13 03:05:01;;;;;;;4.30;4.10;;;;;;;7.53;100.00;100065.84;6116576;23;20103;-69
2023/01/13 03:08:02;;;;;;;4.35;4.15;;;;;;;7.44;100.00;100049.78;6144162;23;20029;-70
2023/01/13 03:10:54;;;;;;;3.75;3.65;;;;;;;7.33;100.00;100039.88;6169524;23;20028;-69
2023/01/13 03:13:29;;;;;;;4.03;3.83;;;;;;;7.30;100.00;100035.66;6141838;23;20113;-70
2023/01/13 03:16:18;;;;;;;4.32;3.90;;;;;;;7.31;100.00;100041.72;6143216;23;20451;-70
2023/01/13 03:18:53;;;;;;;4.00;3.80;;;;;;;6.97;100.00;99978.13;6132061;23;20045;-69
2023/01/13 03:21:27;;;;;;;3.97;3.78;;;;;;;7.35;100.00;100056.31;6111368;23;20535;-70
2023/01/13 03:24:03;;;;;;;4.22;3.97;;;;;;;7.27;100.00;100063.66;6158823;23;20143;-70
2023/01/13 03:26:50;;;;;;;4.00;3.80;;;;;;;6.74;100.00;99984.47;6137407;23;20021;-70
2023/01/13 03:29:30;;;;;;;4.10;3.90;;;;;;;6.85;100.00;100010.88;6130480;23;20059;-69
2023/01/13 03:32:29;;;;;;;12.88;3.95;;;;;;;7.09;100.00;100052.34;6133995;23;20211;-69
2023/01/13 03:35:04;;;;;;;3.75;3.65;;;;;;;6.54;100.00;99993.25;6148696;23;20111;-69
2023/01/13 03:37:36;;;;;;;4.28;3.95;;;;;;;6.96;100.00;100065.16;6128897;23;20061;-69
2023/01/13 03:40:09;;;;;;;14.65;4.28;;;;;;;6.41;100.00;99999.94;6138157;23;20021;-69
2023/01/13 03:42:38;;;;;;;3.55;3.45;;;;;;;6.24;100.00;99961.63;6162043;23;20340;-70
2023/01/13 03:45:09;;;;;;;4.10;3.90;;;;;;;6.91;100.00;100072.34;6134640;23;20084;-70
2023/01/13 03:47:43;;;;;;;4.50;4.10;;;;;;;6.31;100.00;99968.22;6134916;23;20033;-70
2023/01/13 03:50:21;;;;;;;5.22;3.65;;;;;;;6.85;100.00;100067.41;6139870;23;20050;-70
2023/01/13 03:52:57;;;;;;;3.78;3.67;;;;;;;6.83;100.00;100069.25;6140034;23;20458;-70
2023/01/13 03:55:32;;;;;;;3.80;3.70;;;;;;;6.74;100.00;100062.72;6142264;23;20025;-70
2023/01/13 03:58:18;;;;;;;3.80;3.70;;;;;;;6.68;100.00;100045.56;6136521;23;20016;-69
2023/01/13 04:01:09;;;;;;;3.85;3.75;;;;;;;6.84;100.00;100082.22;6166461;23;20017;-70
2023/01/13 04:03:51;;;;;;;3.60;3.50;;;;;;;6.76;100.00;100071.31;6137019;23;20185;-69
2023/01/13 04:06:24;;;;;;;3.78;3.67;;;;;;;6.04;100.00;99970.34;6134462;23;20033;-69
2023/01/13 04:09:13;;;;;;;3.90;3.70;;;;;;;6.50;100.00;100049.88;6118814;23;20023;-69
2023/01/13 04:11:48;;;;;;;4.85;4.25;;;;;;;6.66;100.00;100073.50;6160563;23;20578;-69
2023/01/13 04:14:18;;;;;;;4.03;3.83;;;;;;;5.60;100.00;99908.91;6104015;23;20031;-69
2023/01/13 04:16:47;;;;;;;3.88;3.72;;;;;;;6.15;100.00;99994.13;6147947;23;20412;-69
2023/01/13 04:19:13;;;;;;;3.70;3.60;;;;;;;6.70;100.00;100088.06;6138840;23;20431;-69
2023/01/13 04:21:40;;;;;;;5.10;4.00;;;;;;;6.18;100.00;100014.84;6169427;23;20107;-69
2023/01/13 04:24:07;;;;;;;4.15;3.80;;;;;;;6.60;100.00;100099.84;6137260;23;20040;-69
2023/01/13 04:26:33;;;;;;;3.95;3.75;;;;;;;6.74;100.00;100091.38;6138251;23;20081;-69
2023/01/13 04:29:00;;;;;;;3.90;3.70;;;;;;;6.70;100.00;100090.69;6161551;23;20028;-69
2023/01/13 04:31:27;;;;;;;5.18;3.97;;;;;;;6.52;100.00;100061.09;6124850;23;20013;-69
2023/01/13 04:33:53;;;;;;;4.35;4.07;;;;;;;5.97;100.00;99977.56;6167322;23;20047;-70
2023/01/13 04:36:23;;;;;;;4.10;3.90;;;;;;;6.59;100.00;100088.56;6139338;23;20069;-70
2023/01/13 04:38:50;;;;;;;4.70;4.40;;;;;;;6.66;100.00;100093.50;6141680;23;20025;-70
2023/01/13 04:41:16;;;;;;;5.72;4.70;;;;;;;6.67;100.00;100096.03;6135666;23;20033;-70
2023/01/13 04:43:43;;;;;;;3.60;3.50;;;;;;;6.48;100.00;100079.53;6170666;23;20543;-69
2023/01/13 04:46:09;;;;;;;6.15;3.88;;;;;;;6.47;100.00;100073.47;6141052;23;20565;-69
2023/01/13 04:48:36;;;;;;;3.90;3.70;;;;;;;6.72;100.00;100098.44;6163541;23;20093;-69
2023/01/13 04:51:03;;;;;;;3.88;3.67;;;;;;;6.15;100.00;99991.53;6140678;23;20078;-69
2023/01/13 04:53:29;;;;;;;4.40;4.18;;;;;;;6.86;100.00;100093.44;6131675;23;20013;-69
2023/01/13 04:55:55;;;;;;;5.15;4.78;;;;;;;6.73;100.00;100054.00;6139993;23;20024;-69
2023/01/13 04:58:22;;;;;;;7.03;3.88;;;;;;;7.10;100.00;100114.91;6141474;23;20025;-69
2023/01/13 05:00:49;;;;;;;3.95;3.78;;;;;;;7.13;100.00;100111.31;6173188;23;20078;-69
2023/01/13 05:03:17;;;;;;;5.30;4.40;;;;;;;6.72;100.00;100052.34;6142353;23;20089;-70
2023/01/13 05:05:44;;;;;;;6.40;4.47;;;;;;;7.08;100.00;100095.88;6144489;23;20058;-69
2023/01/13 05:08:10;;;;;;;4.32;4.10;;;;;;;7.05;100.00;100085.56;6114879;23;20037;-70
2023/01/13 05:10:36;;;;;;;9.45;4.63;;;;;;;6.58;100.00;100018.25;6166608;23;20017;-70
2023/01/13 05:18:54;;;;;;;11.63;5.18;;;;;;;7.36;100.00;100110.22;6023086;23;20684;-69
2023/01/13 05:27:07;;;;;;;3.70;3.60;;;;;;;7.02;100.00;100116.19;6117911;23;20568;-70
2023/01/13 05:29:33;;;;;;;4.32;3.88;;;;;;;6.78;100.00;100082.50;6137028;23;20027;-70
2023/01/13 05:32:01;;;;;;;5.75;4.07;;;;;;;7.08;100.00;100115.91;6162946;23;20091;-70
2023/01/13 05:34:27;;;;;;;9.15;4.70;;;;;;;7.02;100.00;100117.03;6133001;23;20009;-70
2023/01/13 05:36:54;;;;;;;4.55;3.75;;;;;;;6.65;100.00;100056.13;6165783;23;20513;-70
2023/01/13 05:39:20;;;;;;;5.18;3.90;;;;;;;6.54;100.00;100025.34;6123755;23;20020;-70
2023/01/13 05:44:32;;;;;;;3.67;3.58;;;;;;;7.01;100.00;100099.69;6138903;23;20145;-70
2023/01/13 05:46:58;;;;;;;15.98;4.10;;;;;;;7.16;100.00;100130.28;6176598;23;20107;-70
2023/01/13 05:49:24;;;;;;;4.10;3.90;;;;;;;7.18;100.00;100133.66;6142896;23;20416;-70
2023/01/13 05:51:51;;;;;;;4.13;3.92;;;;;;;7.17;100.00;100152.00;6170492;23;20091;-71
2023/01/13 05:54:17;;;;;;;5.03;4.60;;;;;;;6.70;100.00;100067.22;6127903;23;20032;-71
2023/01/13 05:56:43;;;;;;;4.20;3.92;;;;;;;7.06;100.00;100143.84;6173409;23;20048;-70
2023/01/13 05:59:10;;;;;;;4.40;4.10;;;;;;;7.01;100.00;100135.38;6139505;23;20334;-71
2023/01/13 06:01:36;;;;;;;4.10;3.90;;;;;;;6.98;100.00;100123.31;6144863;23;20017;-70
2023/01/13 06:04:03;;;;;;;4.43;4.13;;;;;;;6.95;100.00;100124.28;6140716;23;20100;-70
2023/01/13 06:06:30;;;;;;;6.30;3.90;;;;;;;7.10;100.00;100132.34;6141767;23;20079;-70
2023/01/13 06:08:56;;;;;;;7.60;4.25;;;;;;;7.12;100.00;100141.78;6140544;23;20336;-70
2023/01/13 06:11:22;;;;;;;3.88;3.67;;;;;;;6.73;100.00;100098.34;6144723;23;20042;-71
2023/01/13 06:13:49;;;;;;;4.05;3.80;;;;;;;7.16;100.00;100153.75;6170071;23;20096;-70
2023/01/13 06:16:15;;;;;;;4.88;4.10;;;;;;;6.50;100.00;100033.41;6122191;23;20459;-71
2023/01/13 06:18:42;;;;;;;5.00;4.03;;;;;;;7.05;100.00;100134.31;6166716;23;20045;-70
2023/01/13 06:21:09;;;;;;;4.18;3.83;;;;;;;7.28;100.00;100154.94;6119911;23;20361;-71
2023/01/13 06:23:37;;;;;;;6.28;3.70;;;;;;;7.35;100.00;100158.94;6146606;23;20028;-71
2023/01/13 06:26:14;;;;;;;3.70;3.60;;;;;;;7.32;100.00;100161.72;6091667;23;20022;-71
2023/01/13 06:28:41;;;;;;;3.80;3.60;;;;;;;6.97;100.00;100104.19;6144169;23;20020;-70
2023/01/13 06:31:09;;;;;;;4.32;4.13;;;;;;;6.90;100.00;100097.59;6137356;23;20035;-71
2023/01/13 06:33:38;;;;;;;4.10;3.80;;;;;;;7.28;100.00;100154.13;6144671;23;20055;-71
2023/01/13 06:36:11;;;;;;;3.80;3.60;;;;;;;7.14;100.00;100154.75;6172064;23;20016;-69
2023/01/13 06:38:41;;;;;;;4.22;4.03;;;;;;;6.41;100.00;100026.00;6136169;23;20017;-69
2023/01/13 06:41:08;;;;;;;4.00;3.80;;;;;;;6.76;100.00;100100.81;6138593;23;20246;-70
2023/01/13 06:43:35;;;;;;;4.13;3.83;;;;;;;6.43;100.00;100050.22;6164117;23;20055;-69
2023/01/13 06:46:02;;;;;;;3.80;3.70;;;;;;;6.82;100.00;100119.72;6131657;23;20033;-70
2023/01/13 06:48:34;;;;;;;3.92;3.72;;;;;;;6.30;100.00;100056.00;6173955;23;20011;-70
2023/01/13 06:51:03;;;;;;;4.65;4.25;;;;;;;6.26;100.00;100057.03;6133883;23;20059;-70
2023/01/13 06:53:30;;;;;;;3.60;3.47;;;;;;;6.31;100.00;100077.69;6146921;23;20076;-70
2023/01/13 06:55:56;;;;;;;4.38;4.07;;;;;;;6.90;100.00;100156.75;6121393;23;20024;-70
2023/01/13 06:58:23;;;;;;;5.10;4.57;;;;;;;6.72;100.00;100135.78;6137442;23;20029;-70
2023/01/13 07:00:50;;;;;;;3.78;3.58;;;;;;;7.01;100.00;100171.88;6160574;23;20021;-70
2023/01/13 07:03:18;;;;;;;3.67;3.58;;;;;;;6.42;100.00;100085.03;6139692;23;20021;-70
2023/01/13 07:05:51;;;;;;;4.13;3.92;;;;;;;6.94;100.00;100172.16;6141922;23;20009;-69
2023/01/13 07:08:17;;;;;;;3.90;3.70;;;;;;;6.37;100.00;100093.03;6116813;23;20037;-68
2023/01/13 07:10:44;;;;;;;3.60;3.50;;;;;;;5.84;100.00;99994.66;6139068;23;20583;-69
2023/01/13 07:16:01;;;;;;;3.63;3.42;;;;;;;7.12;99.62;100188.75;6137936;23;20009;-69
2023/01/13 07:18:30;;;;;;;4.90;4.07;;;;;;;6.82;98.61;100130.16;6173010;23;20024;-70
2023/01/13 07:20:59;;;;;;;3.80;3.60;;;;;;;7.15;97.81;100174.69;6142622;23;20012;-69
2023/01/13 07:23:27;;;;;;;4.35;4.05;;;;;;;7.11;97.26;100180.97;6171815;23;20055;-69
2023/01/13 07:25:58;;;;;;;3.60;3.50;;;;;;;6.54;96.57;100111.38;6111963;23;20057;-69
2023/01/13 07:28:28;;;;;;;4.05;3.85;;;;;;;7.08;97.72;100175.91;6137699;23;20466;-69
2023/01/13 07:30:55;;;;;;;6.47;3.95;;;;;;;6.93;97.93;100178.28;6140291;23;20405;-69
2023/01/13 07:33:22;;;;;;;4.70;4.30;;;;;;;6.93;98.14;100164.41;6167103;23;20051;-69
2023/01/13 07:35:59;;;;;;;3.50;3.40;;;;;;;6.51;98.67;100113.28;6084188;23;20544;-69
2023/01/13 07:38:26;;;;;;;6.05;4.65;;;;;;;6.52;98.49;100113.22;6154929;23;20273;-70
2023/01/13 07:40:53;;;;;;;3.88;3.67;;;;;;;6.86;99.33;100170.84;6137933;23;20490;-69
2023/01/13 07:43:32;;;;;;;3.95;3.70;;;;;;;6.33;100.00;100123.59;6165335;23;20040;-69
2023/01/13 07:46:04;;;;;;;3.58;3.47;;;;;;;6.79;100.00;100178.94;6084155;23;20081;-70
2023/01/13 07:48:33;;;;;;;4.32;4.13;;;;;;;6.63;100.00;100151.00;6166930;23;20009;-69
2023/01/13 07:51:04;;;;;;;4.22;4.03;;;;;;;6.72;100.00;100177.50;6137582;23;20017;-72
2023/01/13 07:53:31;;;;;;;3.88;3.72;;;;;;;6.63;100.00;100164.88;6168821;23;20782;-73
2023/01/13 07:55:58;;;;;;;3.47;3.38;;;;;;;6.61;100.00;100163.25;6139598;23;20511;-72
2023/01/13 07:58:26;;;;;;;3.80;3.70;;;;;;;5.99;100.00;100061.69;6144701;23;20416;-71
2023/01/13 08:00:53;;;;;;;4.13;3.80;;;;;;;6.30;100.00;100097.69;6136454;23;21503;-72
2023/01/13 08:03:20;;;;;;;4.30;4.10;;;;;;;6.50;100.00;100137.66;6142162;23;20029;-73
2023/01/13 08:05:46;;;;;;;4.55;4.15;;;;;;;6.27;100.00;100082.16;6134763;23;20033;-72
2023/01/13 08:08:13;;;;;;;4.25;4.05;;;;;;;6.96;100.00;100187.75;6168426;23;20025;-72
2023/01/13 08:10:40;;;;;;;4.15;3.95;;;;;;;6.95;100.00;100199.09;6138411;23;20076;-73
2023/01/13 08:13:18;;;;;;;4.55;4.25;;;;;;;6.69;100.00;100148.94;6144482;23;20454;-72
2023/01/13 08:15:47;;;;;;;6.25;4.03;;;;;;;6.99;100.00;100205.88;6169644;23;20215;-73
2023/01/13 08:18:13;;;;;;;8.02;5.47;;;;;;;6.83;100.00;100170.97;6123737;23;20641;-72
2023/01/13 08:20:40;;;;;;;14.65;4.35;;;;;;;6.82;100.00;100183.16;6157550;23;20035;-73
2023/01/13 08:23:06;;;;;;;9.90;4.03;;;;;;;5.85;100.00;100019.75;6139829;23;20017;-72
2023/01/13 08:25:33;;;;;;;4.43;4.03;;;;;;;7.10;100.00;100221.06;6144628;23;20082;-72
2023/01/13 08:27:59;;;;;;;3.78;3.67;;;;;;;6.99;100.00;100183.22;6141182;23;20620;-73
2023/01/13 08:30:27;;;;;;;4.03;3.83;;;;;;;6.47;100.00;100098.69;6137021;23;20029;-72
2023/01/13 08:32:54;;;;;;;21.05;4.53;;;;;;;6.86;100.00;100161.25;6143070;23;20317;-72
2023/01/13 08:35:21;;;;;;;4.72;4.38;;;;;;;7.14;100.00;100170.41;6158655;23;20158;-72
2023/01/13 08:37:48;;;;;;;3.60;3.50;;;;;;;7.00;100.00;100181.47;6138476;23;20289;-73
2023/01/13 08:40:15;;;;;;;4.40;4.10;;;;;;;7.59;100.00;100245.72;6166639;23;20028;-73
2023/01/13 08:42:42;;;;;;;4.75;4.35;;;;;;;7.13;100.00;100181.75;6121009;23;20033;-73
2023/01/13 08:45:09;;;;;;;5.57;5.20;;;;;;;7.68;99.75;100254.91;6144476;23;20025;-73
2023/01/13 08:47:36;;;;;;;5.15;4.18;;;;;;;6.83;99.15;100100.53;6175716;23;20058;-72
2023/01/13 08:50:04;;;;;;;4.45;4.20;;;;;;;7.75;99.13;100268.50;6129652;23;20135;-73
2023/01/13 08:52:30;;;;;;;4.72;4.43;;;;;;;7.71;99.38;100261.72;6116208;23;20546;-73
2023/01/13 08:54:57;;;;;;;4.00;3.80;;;;;;;7.13;98.02;100171.31;6151484;23;20127;-72
2023/01/13 08:57:23;;;;;;;8.73;4.20;;;;;;;7.49;97.12;100230.56;6178198;23;20464;-72
2023/01/13 08:59:50;;;;;;;7.93;4.90;;;;;;;7.25;97.37;100180.34;6085952;23;20026;-73
2023/01/13 09:02:20;;;;;;;4.32;3.92;;;;;;;7.60;97.17;100233.53;6167907;23;20507;-75
2023/01/13 09:04:48;;;;;;;5.53;4.78;;;;;;;7.85;96.80;100248.84;6100275;23;20076;-74
2023/01/13 09:07:15;;;;;;;4.97;4.25;;;;;;;7.59;93.94;100214.38;6166190;23;20020;-73
2023/01/13 09:09:42;;;;;;;5.32;3.67;;;;;;;7.57;93.61;100207.53;6118096;23;20029;-73
2023/01/13 09:14:59;;;;;;;11.18;4.80;;;;;;;7.48;92.10;100161.84;6142737;23;20025;-72
2023/01/13 09:17:26;;;;;;;3.80;3.60;;;;;;;7.61;92.39;100197.81;6182352;23;20087;-72
2023/01/13 09:19:52;;;;;;;4.25;4.05;;;;;;;8.03;92.85;100238.44;6123237;23;20017;-72
2023/01/13 09:22:19;;;;;;;7.53;4.85;;;;;;;7.53;91.09;100144.16;6177359;23;20028;-72
2023/01/13 09:24:46;;;;;;;6.13;3.80;;;;;;;8.15;90.54;100261.34;6151509;23;20025;-73
2023/01/13 09:27:14;;;;;;;4.25;4.05;;;;;;;8.03;90.41;100214.91;6142926;23;20362;-72
2023/01/13 09:29:41;;;;;;;4.07;3.80;;;;;;;8.09;90.01;100210.22;6147758;23;20021;-73
2023/01/13 09:32:11;;;;;;;5.60;4.72;;;;;;;8.04;88.77;100177.41;6139969;23;20032;-73
2023/01/13 09:37:23;;;;;;;8.70;3.95;;;;;;;8.47;87.48;100217.94;6146208;23;20514;-73
2023/01/13 09:39:49;;;;;;;14.10;4.00;;;;;;;8.62;85.72;100218.06;6142244;23;20021;-74
2023/01/13 09:45:17;;;;;;;7.05;4.82;;;;;;;8.28;85.48;100204.94;6136683;23;20133;-72
2023/01/13 09:47:55;;;;;;;4.65;4.18;;;;;;;8.05;85.62;100166.88;6167222;23;20017;-73
2023/01/13 09:50:36;;;;;;;6.88;4.10;;;;;;;8.43;86.10;100239.09;6137066;23;20110;-74
2023/01/13 09:53:12;;;;;;;5.63;3.92;;;;;;;7.88;85.92;100141.59;6143004;23;20391;-75
2023/01/13 09:55:39;;;;;;;11.10;4.65;;;;;;;8.16;86.51;100198.56;6174431;23;20021;-74
2023/01/13 09:58:12;;;;;;;4.68;4.38;;;;;;;8.21;86.80;100224.44;6099494;23;20017;-74
2023/01/13 10:00:46;;;;;;;4.57;4.07;;;;;;;7.70;86.83;100140.75;6160560;23;20036;-74
2023/01/13 10:03:22;;;;;;;4.90;4.50;;;;;;;8.16;86.50;100174.19;6138062;23;20013;-72
2023/01/13 10:05:57;;;;;;;4.53;4.10;;;;;;;8.82;85.66;100249.28;6146022;23;20091;-71
2023/01/13 10:08:31;;;;;;;4.60;4.30;;;;;;;8.51;84.43;100190.69;6138542;23;20036;-74
2023/01/13 10:13:12;;;;;;;5.80;4.82;;;;;;;8.41;84.87;100180.78;6169715;23;20012;-73
2023/01/13 10:13:51;;;;;;;6.30;4.15;;;;;;;8.53;84.46;100186.25;6142095;23;20568;-71
2023/01/13 10:16:29;;;;;;;6.40;4.38;;;;;;;8.74;83.52;100207.81;6119818;23;20037;-73
2023/01/13 10:19:10;;;;;;;18.05;4.90;;;;;;;8.12;83.76;100108.16;6155245;23;20017;-74
2023/01/13 10:21:47;;;;;;;4.10;3.90;;;;;;;8.07;83.52;100107.53;6143559;23;20035;-74
2023/01/13 10:24:24;;;;;;;7.00;4.03;;;;;;;8.84;83.94;100218.66;6156252;23;20517;-75
2023/01/13 10:27:06;;;;;;;4.15;3.95;;;;;;;8.94;83.00;100232.94;6096793;23;20041;-74
2023/01/13 10:29:35;;;;;;;4.35;4.15;;;;;;;8.51;82.49;100151.47;6172021;23;20125;-72
2023/01/13 10:32:01;;;;;;;14.57;4.53;;;;;;;8.92;83.22;100226.94;6098797;23;20025;-73
2023/01/13 10:34:28;;;;;;;8.95;4.10;;;;;;;8.94;82.25;100227.72;6157331;23;20510;-73
2023/01/13 10:37:07;;;;;;;6.90;4.80;;;;;;;8.97;81.87;100230.16;6117070;23;20029;-74
2023/01/13 10:39:45;;;;;;;6.82;6.38;;;;;;;8.95;81.73;100254.72;6156965;23;20230;-73
2023/01/13 10:42:17;;;;;;;4.28;3.95;;;;;;;9.00;81.63;100223.94;6128253;23;20699;-74
2023/01/13 10:44:57;;;;;;;4.70;4.38;;;;;;;8.97;81.06;100222.31;6143244;23;20028;-73
2023/01/13 10:47:33;;;;;;;9.32;4.80;;;;;;;8.96;81.58;100204.06;6150468;23;20194;-73
2023/01/13 10:49:59;;;;;;;11.63;4.85;;;;;;;8.99;81.32;100212.59;6118193;23;20017;-73
2023/01/13 10:52:30;;;;;;;7.60;4.65;;;;;;;9.02;81.33;100214.22;6141775;23;20024;-73
2023/01/13 10:54:57;;;;;;;16.42;4.13;;;;;;;9.09;80.92;100201.63;6166035;23;20196;-73
2023/01/13 10:57:26;;;;;;;4.60;4.30;;;;;;;9.04;80.74;100206.25;6107887;23;20540;-74
2023/01/13 10:59:54;;;;;;;9.30;3.90;;;;;;;9.17;81.04;100212.53;6145315;23;20020;-73
2023/01/13 11:02:30;;;;;;;5.40;4.82;;;;;;;9.11;80.82;100202.41;6140736;23;20016;-73
2023/01/13 11:05:19;;;;;;;6.60;4.35;;;;;;;9.17;80.11;100226.47;6143728;23;20116;-73
2023/01/13 11:07:50;;;;;;;5.38;3.83;;;;;;;9.17;80.41;100221.22;6180064;23;20017;-73
2023/01/13 11:10:31;;;;;;;12.65;4.43;;;;;;;9.21;80.84;100221.91;6116185;23;20037;-74
2023/01/13 11:14:31;;;;;;;4.47;4.28;;;;;;;8.06;79.85;100006.56;6171647;23;20193;-74
2023/01/13 11:16:26;;;;;;;4.25;4.05;;;;;;;9.38;79.29;100241.94;6001023;23;20022;-74
2023/01/13 11:19:10;;;;;;;14.43;5.57;;;;;;;9.27;79.98;100197.19;6027802;23;20018;-73
2023/01/13 11:21:53;;;;;;;5.35;4.93;;;;;;;9.19;79.08;100185.34;6112892;23;20082;-73
2023/01/13 11:24:44;;;;;;;9.00;5.10;;;;;;;9.42;78.70;100229.53;6137775;23;20037;-72
2023/01/13 11:27:29;;;;;;;4.90;4.55;;;;;;;9.34;78.63;100215.09;6169100;23;20032;-71
2023/01/13 11:30:11;;;;;;;6.55;4.90;;;;;;;9.11;79.45;100163.13;6138846;23;20009;-74
2023/01/13 11:33:05;;;;;;;9.10;4.20;;;;;;;9.51;78.61;100215.94;6172652;23;20056;-73
2023/01/13 11:35:39;;;;;;;11.75;6.43;;;;;;;9.26;78.08;100171.91;6136329;23;20096;-74
2023/01/13 11:38:26;;;;;;;4.85;4.55;;;;;;;9.54;77.29;100206.13;6138885;23;20009;-74
2023/01/13 11:40:52;;;;;;;4.25;4.05;;;;;;;9.49;77.38;100187.19;6161178;23;20474;-75
2023/01/13 11:43:31;;;;;;;4.63;4.10;;;;;;;8.94;76.80;100116.94;6097263;23;20022;-73
2023/01/13 11:45:59;;;;;;;7.47;4.75;;;;;;;9.05;77.27;100116.38;6149974;23;20017;-74
2023/01/13 11:48:29;;;;;;;4.13;3.92;;;;;;;8.90;77.12;100124.13;6140252;23;20283;-74
2023/01/13 11:51:30;;;;;;;5.55;4.65;;;;;;;9.19;77.75;100174.03;6144482;23;20545;-74
2023/01/13 11:54:17;;;;;;;7.93;4.35;;;;;;;8.88;77.44;100132.97;6142574;23;20065;-73
2023/01/13 11:57:20;;;;;;;6.63;6.00;;;;;;;9.33;77.01;100202.91;6139447;23;20043;-70
2023/01/13 12:00:13;;;;;;;12.43;4.57;;;;;;;9.38;75.98;100155.50;6161496;23;20009;-76
2023/01/13 12:03:03;;;;;;;21.30;6.13;;;;;;;9.37;76.69;100166.94;6118774;23;20024;-74
2023/01/13 12:05:35;;;;;;;4.40;4.20;;;;;;;9.36;76.72;100152.13;6172317;23;20032;-74
2023/01/13 12:08:19;;;;;;;4.95;4.55;;;;;;;9.32;76.09;100151.50;6141942;23;20017;-74
2023/01/13 12:11:04;;;;;;;5.93;4.68;;;;;;;9.33;76.60;100163.63;6167568;23;20082;-73
2023/01/13 12:13:36;;;;;;;11.48;4.60;;;;;;;9.34;76.48;100165.34;6117416;23;20037;-73
2023/01/13 12:16:07;;;;;;;4.70;4.30;;;;;;;9.30;76.69;100166.44;6172779;23;20577;-75
2023/01/13 12:19:04;;;;;;;5.97;4.75;;;;;;;9.31;77.39;100167.28;6115144;23;20037;-70
2023/01/13 12:21:34;;;;;;;3.78;3.65;;;;;;;8.83;77.30;100101.00;6162404;23;20023;-73
2023/01/13 12:24:23;;;;;;;11.60;4.50;;;;;;;9.30;79.61;100189.13;6145759;23;20053;-73
2023/01/13 12:26:59;;;;;;;10.77;3.90;;;;;;;9.17;78.55;100150.53;6141304;23;20029;-73
2023/01/13 12:29:32;;;;;;;6.63;4.90;;;;;;;8.94;78.62;100122.16;6144833;23;20020;-73